createdAt,value
2022-10-29T00:11:06.258Z,9.30
2022-10-29T00:25:06.246Z,8.30
2022-10-29T00:39:06.216Z,7.60
2022-10-29T00:53:06.310Z,6.80
2022-10-29T01:07:06.277Z,6.20
2022-10-29T01:21:06.284Z,6.10
2022-10-29T01:35:06.290Z,5.30
2022-10-29T01:49:06.295Z,4.70
2022-10-29T02:03:06.298Z,4.20
2022-10-29T02:17:06.272Z,3.80
2022-10-29T02:31:06.274Z,4.00
2022-10-29T02:45:06.354Z,3.30
2022-10-29T02:59:07.695Z,2.90
2022-10-29T03:13:06.365Z,2.90
2022-10-29T03:27:06.369Z,3.00
2022-10-29T03:41:06.378Z,2.40
2022-10-29T03:55:06.374Z,2.50
2022-10-29T04:09:06.454Z,2.20
2022-10-29T04:37:06.501Z,2.00
2022-10-29T04:51:06.505Z,2.50
2022-10-29T05:05:06.506Z,2.60
2022-10-29T05:19:06.536Z,2.10
2022-10-29T05:33:06.724Z,2.20
2022-10-29T05:48:06.638Z,8.40
2022-10-29T06:03:06.710Z,8.20
2022-10-29T06:19:06.633Z,7.50
2022-10-29T06:34:06.651Z,6.35
2022-10-29T06:49:06.642Z,5.10
2022-10-29T07:04:06.618Z,4.30
2022-10-29T07:19:06.645Z,3.80
2022-10-29T07:34:06.625Z,3.80
2022-10-29T07:49:06.777Z,3.50
2022-10-29T08:04:06.804Z,3.50
2022-10-29T08:19:06.805Z,2.90
2022-10-29T08:34:10.856Z,3.50
2022-10-29T08:49:06.809Z,3.15
2022-10-29T09:04:06.805Z,2.70
2022-10-29T09:19:06.848Z,2.60
2022-10-29T09:34:06.848Z,2.60
2022-10-29T10:04:06.921Z,2.60
2022-10-29T10:19:06.913Z,2.40
2022-10-29T10:34:06.918Z,2.40
2022-10-29T10:49:06.935Z,2.50
2022-10-29T11:04:06.964Z,2.40
2022-10-29T11:20:07.003Z,2.50
2022-10-29T11:35:07.009Z,2.80
2022-10-29T11:50:07.036Z,2.70
2022-10-29T12:05:07.022Z,22.50
2022-10-29T12:20:07.073Z,19.50
2022-10-29T12:35:07.042Z,16.30
2022-10-29T12:50:07.059Z,14.30
2022-10-29T13:05:07.167Z,16.00
2022-10-29T13:20:07.089Z,15.30
2022-10-29T13:36:07.110Z,13.30
2022-10-29T13:51:07.152Z,11.90
2022-10-29T14:06:07.111Z,10.65
2022-10-29T14:21:07.178Z,9.60
2022-10-29T14:36:07.245Z,9.50
2022-10-29T14:51:07.251Z,9.30
2022-10-29T15:06:08.250Z,7.90
2022-10-29T15:21:08.290Z,7.70
2022-10-29T15:36:08.386Z,7.20
2022-10-29T15:51:08.321Z,6.90
2022-10-29T16:06:08.319Z,6.30
2022-10-29T16:21:08.352Z,6.30
2022-10-29T16:36:08.466Z,6.00
2022-10-29T16:50:08.429Z,6.40
2022-10-29T17:04:08.461Z,5.65
2022-10-29T17:18:08.487Z,5.60
2022-10-29T17:32:08.448Z,5.70
2022-10-29T17:46:08.438Z,5.85
2022-10-29T18:00:08.464Z,5.40
2022-10-29T18:14:08.483Z,4.90
2022-10-29T18:28:08.530Z,5.00
2022-10-29T18:42:08.504Z,4.80
2022-10-29T18:56:08.490Z,4.90
2022-10-29T19:10:08.504Z,4.50
2022-10-29T19:24:08.501Z,4.60
2022-10-29T19:38:08.525Z,4.60
2022-10-29T19:52:08.578Z,4.30
2022-10-29T20:06:08.628Z,4.40
2022-10-29T20:20:11.581Z,4.30
2022-10-29T20:34:08.629Z,4.85
2022-10-29T20:48:08.657Z,4.50
2022-10-29T21:02:08.946Z,4.50
2022-10-29T21:16:08.765Z,4.50
2022-10-29T21:30:08.758Z,4.00
2022-10-29T21:44:08.766Z,3.90
2022-10-29T21:58:08.785Z,3.90
2022-10-29T22:12:08.825Z,3.80
2022-10-29T22:26:08.800Z,3.50
2022-10-29T22:40:08.792Z,3.30
2022-10-29T22:54:08.801Z,3.30
2022-10-29T23:08:11.128Z,3.20
2022-10-29T23:22:11.102Z,3.30
2022-10-29T23:36:11.052Z,3.00
2022-10-29T23:50:11.068Z,2.60
